WetterOnline ( https://www.wetteronline.de )

Wetter aktuell Leck

Aktuelles Wetter: Leck (17m)

6-stündlich | Neueste Meldungen
Ortszeit Temperatur Wetter
Di, 21.03. 13:00 9.3° C leichter Regen
Di, 21.03. 7:00 6.3° C bedeckt
Di, 21.03. 1:00 6.1° C bedeckt
Mo, 20.03. 19:00 6.8° C bedeckt
Mo, 20.03. 13:00 7.2° C leichter Regen
Mo, 20.03. 7:00 6.0° C Sprühregen
Mo, 20.03. 1:00 6.1° C Sprühregen
So, 19.03. 19:00 7.0° C bedeckt
Ortszeit Temperatur Wetter
Di, 21.03. 18:00 8.7° C bedeckt
Di, 21.03. 17:50 8.7° C bedeckt
Di, 21.03. 17:40 8.5° C bedeckt
Di, 21.03. 17:30 8.6° C bedeckt
Di, 21.03. 17:20 8.6° C bedeckt
Di, 21.03. 17:10 8.6° C bedeckt
Di, 21.03. 17:00 8.6° C Regen
Di, 21.03. 16:30 8.7° C bedeckt
Di, 21.03. 16:00 8.7° C leichter Regen
Di, 21.03. 15:30 9.1° C leichter Regen
Di, 21.03. 15:00 9.0° C leichter Regen
Ortszeit Relative Feuchte Sichtweite
Di, 21.03. 13:00 97% 9 km
Di, 21.03. 7:00 99% 3.5 km
Di, 21.03. 1:00 99% 2.0 km
Mo, 20.03. 19:00 93% 14 km
Mo, 20.03. 13:00 94% 10 km
Mo, 20.03. 7:00 95% 8 km
Mo, 20.03. 1:00 98% 6 km
So, 19.03. 19:00 99% 12 km
Ortszeit Relative Feuchte Sichtweite
Di, 21.03. 18:00 92% 25 km
Di, 21.03. 17:50 92% -
Di, 21.03. 17:40 93% -
Di, 21.03. 17:30 94% 19 km
Di, 21.03. 17:20 94% -
Di, 21.03. 17:10 95% -
Di, 21.03. 17:00 96% 16 km
Di, 21.03. 16:30 96% 16 km
Di, 21.03. 16:00 97% 15 km
Di, 21.03. 15:30 97% 5.0 km
Di, 21.03. 15:00 97% 3.4 km
Ortszeit Niederschlagsmenge Niederschlagsart
Di, 21.03. 13:00 0.7 l/m2 in 6 Std. Regen
Di, 21.03. 7:00 0.1 l/m2 in 12 Std. Sprühregen
Di, 21.03. 1:00 0.1 l/m2 in 6 Std. Sprühregen
Mo, 20.03. 19:00 0.8 l/m2 in 12 Std. Regen
Mo, 20.03. 13:00 0.8 l/m2 in 6 Std. Regen
Mo, 20.03. 7:00 0.1 l/m2 in 12 Std. Sprühregen
Mo, 20.03. 1:00 0.1 l/m2 in 6 Std. Sprühregen
So, 19.03. 19:00 0.1 l/m2 in 12 Std. Sprühregen
Ortszeit Niederschlagsmenge Niederschlagsart
Di, 21.03. 18:00 0.0 l/m2 in 1 Std. -
Di, 21.03. 17:50 keine Meldung -
Di, 21.03. 17:40 keine Meldung -
Di, 21.03. 17:30 0.0 l/m2 in 30 Min -
Di, 21.03. 17:20 keine Meldung -
Di, 21.03. 17:10 keine Meldung -
Di, 21.03. 17:00 <0.05 l/m2 in 1 Std. Regen
Di, 21.03. 16:30 <0.05 l/m2 in 30 Min Schneeregen
Di, 21.03. 16:00 1.1 l/m2 in 1 Std. Regen
Di, 21.03. 15:30 0.7 l/m2 in 30 Min -
Di, 21.03. 15:00 1.2 l/m2 in 1 Std. Regen
Ortszeit Stärke Spitze Richtung
km/h Bft. km/h Grad Sektor
Di, 21.03. 13:00 22 4 36 210° SW
Di, 21.03. 7:00 9 2 15 150° SO
Di, 21.03. 1:00 0 0 14 - -
Mo, 20.03. 19:00 11 2 32 220° SW
Mo, 20.03. 13:00 18 3 29 230° SW
Mo, 20.03. 7:00 18 3 32 250° W
Mo, 20.03. 1:00 14 3 32 250° W
So, 19.03. 19:00 7 2 28 230° SW
Ortszeit Stärke Spitze Richtung
km/h Bft. km/h Grad Sektor
Di, 21.03. 18:00 17 3 31 210° SW
Di, 21.03. 17:50 17 3 - 210° SW
Di, 21.03. 17:40 14 3 - 210° SW
Di, 21.03. 17:30 18 3 32 220° SW
Di, 21.03. 17:20 18 3 - 220° SW
Di, 21.03. 17:10 20 4 - 210° SW
Di, 21.03. 17:00 18 3 29 220° SW
Di, 21.03. 16:30 18 3 29 220° SW
Di, 21.03. 16:00 20 4 35 220° SW
Di, 21.03. 15:30 18 3 36 230° SW
Di, 21.03. 15:00 18 3 36 220° SW
Ortszeit Untergrenze Bedeckung Gattung
total tief tief mittel hoch
Di, 21.03. 13:00 120 m 8/8 8/8 - - -
Di, 21.03. 7:00 60 m 8/8 8/8 - - -
Di, 21.03. 1:00 30 m 8/8 8/8 - - -
Mo, 20.03. 19:00 240 m 8/8 8/8 - - -
Mo, 20.03. 13:00 240 m 8/8 8/8 - - -
Mo, 20.03. 7:00 180 m 8/8 8/8 - - -
Mo, 20.03. 1:00 90 m 8/8 8/8 - - -
So, 19.03. 19:00 120 m 8/8 8/8 - - -
Ortszeit Bedeckungsgrad in Achtel und Wolkenuntergrenze
Di, 21.03. 18:00 7(570m) 7(840m) 8(1170m)
Di, 21.03. 17:50 7(570m) 7(840m) 8(1170m)
Di, 21.03. 17:40 8
Di, 21.03. 17:30 3(180m) 8(660m)
Di, 21.03. 17:20 3(180m) 8(660m)
Di, 21.03. 17:10 8
Di, 21.03. 17:00 7(180m) 8(690m)
Di, 21.03. 16:30 7(180m) 8(690m)
Di, 21.03. 16:00 7(150m) 8(270m)
Di, 21.03. 15:30 8(180m)
Di, 21.03. 15:00 8(120m)
Ortszeit Luftdruck NN (hPa) Tendenz (hPa in 3 Std.)
Di, 21.03. 13:00 1011 - 1,2
Di, 21.03. 7:00 1013 - 1,0
Di, 21.03. 1:00 1015 - 0,3
Mo, 20.03. 19:00 1015 + 0,6
Mo, 20.03. 13:00 1015 - 0,4
Mo, 20.03. 7:00 1015 - 0,2
Mo, 20.03. 1:00 1015 0,0
So, 19.03. 19:00 1015 + 1,0
Ortszeit Luftdruck NN (hPa) Tendenz (hPa in 3 Std.)
Di, 21.03. 18:00 1009 - 1,3
Di, 21.03. 17:50 1009 keine Meldung
Di, 21.03. 17:40 1009 keine Meldung
Di, 21.03. 17:30 1009 - 1,3
Di, 21.03. 17:20 1009 keine Meldung
Di, 21.03. 17:10 1009 keine Meldung
Di, 21.03. 17:00 1009 - 1,4
Di, 21.03. 16:30 1009 - 1,4
Di, 21.03. 16:00 1010 - 1,3
Di, 21.03. 15:30 1010 - 1,4
Di, 21.03. 15:00 1010 - 1,4
Ortszeit Schneehöhe (cm)
Di, 21.03. 13:00 0
Di, 21.03. 7:00 0
Di, 21.03. 1:00 0
Mo, 20.03. 19:00 0
Mo, 20.03. 13:00 0
Mo, 20.03. 7:00 0
Mo, 20.03. 1:00 0
So, 19.03. 19:00 0
Ortszeit Schneehöhe (cm)
Di, 21.03. 18:00 0
Di, 21.03. 17:50 0
Di, 21.03. 17:40 -
Di, 21.03. 17:30 0
Di, 21.03. 17:20 0
Di, 21.03. 17:10 -
Di, 21.03. 17:00 0
Di, 21.03. 16:30 0
Di, 21.03. 16:00 0
Di, 21.03. 15:30 0
Di, 21.03. 15:00 0
Link zu dieser Seite / Seite empfehlen

Das Wetter in ...